Time;durP1;ratioP1;P1;durP2;ratioP2;P2;SDS_P1;SDS_P2;PMS_P1;PMS_P2;Temp;Humidity;BMP_temperature;BMP_pressure;BME280_temperature;BME280_humidity;BME280_pressure;Samples;Min_cycle;Max_cycle;Signal;HPM_P1;HPM_P2
2021/12/02 00:01:08;;;;;;;13.30;1.90;;;8.00;97.30;;;;;;5107571;28;20415;-69
2021/12/02 00:03:37;;;;;;;6.75;1.48;;;8.00;97.20;;;;;;5105291;28;20416;-71
2021/12/02 00:06:09;;;;;;;9.20;1.33;;;8.00;97.80;;;;;;5106210;28;21166;-69
2021/12/02 00:08:36;;;;;;;7.40;1.20;;;7.90;98.30;;;;;;5106463;28;20475;-72
2021/12/02 00:11:01;;;;;;;8.20;1.20;;;7.90;98.70;;;;;;5105648;28;20485;-72
2021/12/02 00:13:29;;;;;;;9.30;1.20;;;7.90;98.70;;;;;;5107008;28;20412;-73
2021/12/02 00:16:05;;;;;;;7.45;1.38;;;7.80;98.80;;;;;;5107390;28;20424;-72
2021/12/02 00:21:03;;;;;;;8.18;1.42;;;7.90;99.40;;;;;;5104620;28;20935;-71
2021/12/02 00:21:23;;;;;;;8.07;1.38;;;7.80;99.20;;;;;;5104233;28;20443;-70
2021/12/02 00:23:58;;;;;;;11.10;1.40;;;7.80;99.50;;;;;;5103044;28;20397;-70
2021/12/02 00:26:24;;;;;;;10.75;1.45;;;7.80;99.30;;;;;;5105522;28;20458;-71
2021/12/02 00:28:55;;;;;;;12.67;1.80;;;7.80;99.00;;;;;;5106094;28;20519;-72
2021/12/02 00:31:24;;;;;;;11.23;1.52;;;7.80;98.90;;;;;;5085786;28;20452;-71
2021/12/02 00:33:52;;;;;;;16.70;1.80;;;7.70;99.00;;;;;;5104027;28;20423;-67
2021/12/02 00:36:19;;;;;;;14.40;2.00;;;7.80;99.30;;;;;;5106333;28;20414;-69
2021/12/02 00:38:46;;;;;;;17.35;2.15;;;7.80;99.70;;;;;;5105912;28;20880;-71
2021/12/02 00:41:15;;;;;;;12.38;2.22;;;7.80;99.90;;;;;;5106379;28;21141;-72
2021/12/02 00:43:41;;;;;;;17.98;2.17;;;7.90;99.90;;;;;;5103611;28;20470;-72
2021/12/02 00:46:10;;;;;;;13.90;2.53;;;7.90;99.90;;;;;;5084997;28;20518;-68
2021/12/02 00:48:37;;;;;;;18.27;2.88;;;8.00;99.90;;;;;;5084570;28;21033;-71
2021/12/02 00:51:05;;;;;;;19.23;2.47;;;8.00;99.90;;;;;;5084692;28;20418;-69
2021/12/02 00:53:33;;;;;;;14.75;2.40;;;8.00;99.90;;;;;;5083177;28;20444;-69
2021/12/02 00:56:04;;;;;;;19.90;2.80;;;8.00;99.90;;;;;;5083674;28;20409;-71
2021/12/02 00:58:31;;;;;;;22.40;2.83;;;8.00;99.90;;;;;;5084794;28;20770;-71
2021/12/02 01:00:58;;;;;;;13.90;2.17;;;8.00;99.90;;;;;;5085143;28;21027;-70
2021/12/02 01:03:28;;;;;;;14.63;1.65;;;8.00;99.90;;;;;;5083832;28;20418;-69
2021/12/02 01:05:53;;;;;;;12.70;1.90;;;7.90;99.30;;;;;;5082760;28;20401;-73
2021/12/02 01:08:20;;;;;;;10.83;1.00;;;7.90;98.80;;;;;;5082598;28;21125;-71
2021/12/02 01:10:46;;;;;;;6.07;1.05;;;7.90;98.50;;;;;;5072630;28;20415;-72
2021/12/02 01:13:12;;;;;;;5.63;0.90;;;7.80;97.80;;;;;;5083297;28;20559;-71
2021/12/02 01:15:38;;;;;;;8.70;1.50;;;7.80;97.00;;;;;;5085344;28;20575;-68
2021/12/02 01:18:04;;;;;;;7.85;1.10;;;7.90;97.70;;;;;;5085641;28;20413;-69
2021/12/02 01:20:32;;;;;;;12.25;1.65;;;7.90;98.20;;;;;;5081008;28;20421;-69
2021/12/02 01:22:59;;;;;;;13.10;1.73;;;7.90;98.80;;;;;;5083600;28;20410;-68
2021/12/02 01:25:30;;;;;;;14.48;1.77;;;8.00;99.20;;;;;;5085402;28;20421;-70
2021/12/02 01:27:58;;;;;;;13.50;1.77;;;8.00;99.40;;;;;;5083082;28;20920;-71
2021/12/02 01:30:29;;;;;;;19.88;1.75;;;8.00;99.10;;;;;;5085281;28;20836;-69
2021/12/02 01:33:03;;;;;;;10.52;1.27;;;8.00;98.90;;;;;;5082132;28;20405;-69
2021/12/02 01:35:30;;;;;;;11.32;1.50;;;8.00;98.80;;;;;;5084806;28;20417;-69
2021/12/02 01:37:56;;;;;;;5.93;1.00;;;8.00;98.60;;;;;;5083593;28;21040;-67
2021/12/02 01:40:29;;;;;;;6.25;1.00;;;7.90;98.40;;;;;;5100602;27;21237;-73
2021/12/02 01:42:57;;;;;;;8.48;1.50;;;8.00;98.60;;;;;;5079903;28;20418;-73
2021/12/02 01:45:26;;;;;;;5.70;1.00;;;7.90;98.60;;;;;;5085544;28;20451;-70
2021/12/02 01:47:54;;;;;;;6.90;0.77;;;7.90;98.40;;;;;;5079877;28;20425;-72
2021/12/02 01:50:23;;;;;;;7.32;1.00;;;7.90;98.20;;;;;;5081433;28;20471;-72
2021/12/02 01:52:57;;;;;;;8.57;1.00;;;7.80;98.00;;;;;;5082141;28;20433;-71
2021/12/02 01:55:25;;;;;;;5.45;0.90;;;7.80;98.40;;;;;;5081060;28;20899;-69
2021/12/02 01:58:00;;;;;;;7.72;1.15;;;7.80;97.90;;;;;;5080843;28;20422;-71
2021/12/02 02:00:32;;;;;;;9.53;1.20;;;7.70;98.00;;;;;;5081407;28;20465;-70
2021/12/02 02:03:00;;;;;;;6.90;1.00;;;7.70;98.00;;;;;;5079490;28;20415;-72
2021/12/02 02:05:25;;;;;;;4.55;0.82;;;7.60;98.00;;;;;;5080138;28;20415;-71
2021/12/02 02:07:56;;;;;;;6.70;1.00;;;7.60;98.40;;;;;;5081149;28;20411;-68
2021/12/02 02:10:22;;;;;;;9.45;0.98;;;7.60;98.40;;;;;;5080117;28;20414;-72
2021/12/02 02:12:48;;;;;;;8.10;1.05;;;7.50;99.00;;;;;;5081495;28;20419;-71
2021/12/02 02:15:14;;;;;;;7.53;0.97;;;7.50;98.70;;;;;;5082326;28;20497;-71
2021/12/02 02:18:24;;;;;;;7.70;0.90;;;7.50;98.80;;;;;;5080908;28;20441;-69
2021/12/02 02:21:08;;;;;;;7.68;1.20;;;7.50;98.70;;;;;;5073836;28;20513;-74
2021/12/02 02:23:38;;;;;;;4.75;0.90;;;7.50;98.40;;;;;;5080341;28;20418;-71
2021/12/02 02:26:05;;;;;;;6.47;1.33;;;7.50;98.60;;;;;;5078835;28;20413;-70
2021/12/02 02:28:32;;;;;;;7.93;1.30;;;7.40;98.40;;;;;;5092200;28;21286;-72
2021/12/02 02:30:58;;;;;;;11.65;1.33;;;7.40;99.00;;;;;;5088646;28;20416;-70
2021/12/02 02:33:23;;;;;;;14.95;1.85;;;7.30;98.80;;;;;;5081379;28;20429;-69
2021/12/02 02:35:49;;;;;;;17.63;2.20;;;7.30;99.20;;;;;;5079850;28;21296;-74
2021/12/02 02:38:16;;;;;;;22.63;2.80;;;7.30;99.90;;;;;;5078149;28;20403;-71
2021/12/02 02:40:44;;;;;;;15.17;2.20;;;7.30;99.90;;;;;;5077166;28;21128;-69
2021/12/02 02:43:11;;;;;;;14.15;2.00;;;7.30;99.90;;;;;;5074117;28;20417;-68
2021/12/02 02:45:38;;;;;;;14.33;2.00;;;7.30;99.90;;;;;;5077233;28;20778;-71
2021/12/02 02:48:05;;;;;;;11.38;1.55;;;7.30;99.90;;;;;;5075654;28;20427;-71
2021/12/02 02:50:32;;;;;;;11.38;1.83;;;7.40;99.90;;;;;;5054070;28;20427;-71
2021/12/02 02:53:16;;;;;;;13.05;1.80;;;7.30;99.90;;;;;;5054987;28;20460;-70
2021/12/02 02:55:46;;;;;;;12.25;2.20;;;7.30;99.90;;;;;;5061869;28;20847;-69
2021/12/02 02:58:25;;;;;;;17.00;2.00;;;7.30;99.90;;;;;;5063543;28;20437;-71
2021/12/02 03:08:55;;;;;;;10.18;1.77;;;7.30;99.90;;;;;;5063553;28;20411;-69
2021/12/02 03:11:22;;;;;;;7.95;1.40;;;7.30;99.90;;;;;;5059196;28;20409;-70
2021/12/02 03:13:51;;;;;;;11.87;1.40;;;7.30;99.90;;;;;;5064860;28;20412;-71
2021/12/02 03:19:28;;;;;;;10.00;1.42;;;7.30;99.90;;;;;;4986568;28;20424;-70
2021/12/02 03:21:55;;;;;;;8.65;1.13;;;7.20;99.90;;;;;;5000993;28;20819;-69
2021/12/02 03:24:21;;;;;;;12.45;1.33;;;7.20;99.90;;;;;;5034366;28;20753;-71
2021/12/02 03:26:48;;;;;;;8.93;1.50;;;7.10;99.90;;;;;;5062544;28;21229;-72
2021/12/02 03:29:14;;;;;;;13.15;1.67;;;7.20;99.90;;;;;;5045271;28;20774;-73
2021/12/02 03:31:40;;;;;;;12.85;1.65;;;7.20;99.90;;;;;;5043295;28;20421;-68
2021/12/02 03:34:07;;;;;;;9.43;1.25;;;7.20;99.90;;;;;;5060677;28;20433;-70
2021/12/02 03:36:34;;;;;;;11.20;1.45;;;7.20;99.90;;;;;;5062056;28;20493;-71
2021/12/02 03:39:00;;;;;;;9.50;1.25;;;7.20;99.90;;;;;;5066952;28;20514;-70
2021/12/02 03:41:27;;;;;;;9.98;1.10;;;7.20;99.90;;;;;;5065285;28;20461;-69
2021/12/02 03:43:53;;;;;;;7.72;0.98;;;7.20;99.90;;;;;;5065461;28;20399;-72
2021/12/02 03:46:23;;;;;;;6.45;0.90;;;7.20;99.90;;;;;;5065637;28;20449;-71
2021/12/02 03:48:50;;;;;;;8.02;1.45;;;7.20;99.90;;;;;;5065059;28;20903;-70
2021/12/02 03:51:17;;;;;;;11.07;1.10;;;7.10;99.90;;;;;;5065808;28;20487;-71
2021/12/02 03:53:44;;;;;;;7.65;1.23;;;7.10;99.90;;;;;;5063620;28;20411;-71
2021/12/02 03:56:10;;;;;;;8.55;1.35;;;7.20;99.90;;;;;;5061099;28;20410;-71
2021/12/02 03:58:38;;;;;;;10.90;1.40;;;7.20;99.90;;;;;;5064311;28;20800;-69
2021/12/02 04:01:06;;;;;;;11.38;1.58;;;7.20;99.90;;;;;;5065462;28;20465;-71
2021/12/02 04:03:32;;;;;;;11.48;1.52;;;7.30;99.90;;;;;;5063675;28;20764;-69
2021/12/02 04:05:58;;;;;;;9.73;1.52;;;7.20;99.90;;;;;;5064649;28;20419;-69
2021/12/02 04:08:29;;;;;;;13.27;1.50;;;7.20;99.90;;;;;;5063709;28;20879;-71
2021/12/02 04:11:02;;;;;;;7.75;1.33;;;7.20;99.90;;;;;;5070966;28;20490;-71
2021/12/02 04:13:32;;;;;;;7.15;1.23;;;7.10;99.90;;;;;;5062436;28;20480;-70
2021/12/02 04:16:03;;;;;;;8.68;1.10;;;7.10;99.90;;;;;;5062809;28;21130;-71
2021/12/02 04:18:28;;;;;;;6.88;1.00;;;7.00;99.70;;;;;;5063775;28;20429;-70
2021/12/02 04:20:54;;;;;;;6.75;0.98;;;7.00;99.80;;;;;;5064419;28;20776;-72
2021/12/02 04:23:19;;;;;;;8.27;1.07;;;7.00;99.70;;;;;;5063124;28;20566;-71
2021/12/02 04:25:45;;;;;;;7.67;1.20;;;6.90;99.40;;;;;;5063456;28;20420;-71
2021/12/02 04:28:11;;;;;;;10.00;1.50;;;6.90;99.30;;;;;;5067267;28;20502;-72
2021/12/02 04:30:36;;;;;;;10.23;1.30;;;6.80;99.30;;;;;;5063386;28;20449;-71
2021/12/02 04:33:02;;;;;;;8.43;1.23;;;6.80;99.40;;;;;;5064024;28;20519;-72
2021/12/02 04:35:27;;;;;;;8.23;1.60;;;6.80;99.60;;;;;;5065512;28;20911;-70
2021/12/02 04:37:53;;;;;;;7.50;1.20;;;6.80;99.70;;;;;;5063301;28;20422;-69
2021/12/02 04:40:21;;;;;;;10.87;1.40;;;6.80;99.60;;;;;;5060684;28;20819;-73
2021/12/02 04:42:48;;;;;;;9.02;1.40;;;6.80;99.70;;;;;;5059685;28;20426;-72
2021/12/02 04:45:14;;;;;;;10.43;1.42;;;6.80;99.90;;;;;;5061164;28;20749;-71
2021/12/02 04:47:40;;;;;;;6.85;1.20;;;6.80;99.60;;;;;;5059206;28;20415;-68
2021/12/02 04:50:08;;;;;;;11.57;1.55;;;6.90;99.90;;;;;;5064426;28;20399;-68
2021/12/02 04:52:35;;;;;;;15.00;2.28;;;6.90;99.90;;;;;;5050729;28;20428;-71
2021/12/02 04:55:01;;;;;;;7.97;1.43;;;7.00;99.90;;;;;;5047155;28;20648;-71
2021/12/02 04:57:27;;;;;;;9.45;1.40;;;7.00;99.90;;;;;;5050804;28;20438;-69
2021/12/02 04:59:52;;;;;;;11.02;1.70;;;7.00;99.90;;;;;;5060441;28;20485;-70
2021/12/02 05:02:18;;;;;;;8.93;1.93;;;7.00;99.90;;;;;;5058179;28;20428;-73
2021/12/02 05:04:44;;;;;;;9.00;1.67;;;7.00;99.90;;;;;;5057052;28;20406;-71
2021/12/02 05:07:10;;;;;;;10.13;1.60;;;7.00;99.90;;;;;;5059822;28;20495;-71
2021/12/02 05:09:35;;;;;;;11.15;1.75;;;6.90;99.90;;;;;;5062641;28;21129;-70
2021/12/02 05:12:01;;;;;;;11.13;1.75;;;7.00;99.90;;;;;;5054816;28;20509;-69
2021/12/02 05:14:27;;;;;;;14.17;3.20;;;6.90;99.90;;;;;;5045375;28;20496;-72
2021/12/02 05:16:52;;;;;;;10.25;1.90;;;7.00;99.90;;;;;;5035211;28;20427;-71
2021/12/02 05:19:18;;;;;;;12.87;2.20;;;7.00;99.90;;;;;;5051055;28;20806;-71
2021/12/02 05:21:44;;;;;;;14.13;2.28;;;7.00;99.90;;;;;;5049298;28;20420;-71
2021/12/02 05:24:09;;;;;;;14.10;2.07;;;7.00;99.90;;;;;;5058709;28;20902;-72
2021/12/02 05:26:36;;;;;;;17.95;3.90;;;7.00;99.90;;;;;;5055817;28;20976;-71
2021/12/02 05:29:02;;;;;;;22.23;6.20;;;7.00;99.90;;;;;;5057752;28;21221;-69
2021/12/02 05:31:28;;;;;;;15.27;2.78;;;7.10;99.90;;;;;;5054534;28;20535;-71
2021/12/02 05:33:53;;;;;;;15.73;2.55;;;7.10;99.90;;;;;;5061111;28;20964;-70
2021/12/02 05:36:19;;;;;;;15.07;3.00;;;7.10;99.90;;;;;;5039789;28;20521;-70
2021/12/02 05:38:45;;;;;;;14.07;2.42;;;7.10;99.90;;;;;;5060285;28;20423;-69
2021/12/02 05:41:14;;;;;;;16.40;3.30;;;7.10;99.90;;;;;;5042703;28;20403;-71
2021/12/02 05:43:39;;;;;;;19.05;3.20;;;7.10;99.90;;;;;;5059742;28;20404;-69
2021/12/02 05:46:06;;;;;;;18.30;2.87;;;7.10;99.90;;;;;;5055689;28;20911;-73
2021/12/02 05:48:32;;;;;;;19.05;2.60;;;7.00;99.90;;;;;;5059507;28;20430;-70
2021/12/02 05:50:58;;;;;;;11.43;2.07;;;7.00;99.90;;;;;;5042296;28;20407;-74
2021/12/02 05:53:23;;;;;;;12.77;2.30;;;7.00;99.90;;;;;;5040993;28;20528;-69
2021/12/02 05:55:49;;;;;;;12.20;2.80;;;6.90;99.90;;;;;;5054566;28;20455;-71
2021/12/02 05:58:15;;;;;;;16.33;1.67;;;6.90;99.90;;;;;;5034648;28;20442;-69
2021/12/02 06:00:43;;;;;;;7.72;1.23;;;6.80;99.90;;;;;;5057606;28;20956;-71
2021/12/02 06:03:08;;;;;;;8.10;1.02;;;6.80;99.90;;;;;;5031193;28;20423;-71
2021/12/02 06:05:34;;;;;;;6.10;1.00;;;6.80;99.20;;;;;;5060906;28;20465;-71
2021/12/02 06:08:02;;;;;;;6.45;1.23;;;6.70;98.20;;;;;;5056429;28;20423;-73
2021/12/02 06:10:29;;;;;;;5.90;1.00;;;6.70;97.90;;;;;;5061590;28;20919;-71
2021/12/02 06:12:56;;;;;;;5.07;0.93;;;6.70;98.00;;;;;;5059256;28;20411;-72
2021/12/02 06:15:21;;;;;;;11.90;2.63;;;6.70;98.20;;;;;;5060881;28;20415;-73
2021/12/02 06:17:47;;;;;;;7.93;1.20;;;6.60;97.50;;;;;;5058221;28;20433;-71
2021/12/02 06:20:14;;;;;;;8.13;1.25;;;6.60;97.20;;;;;;5057925;28;20443;-72
2021/12/02 06:22:41;;;;;;;8.80;1.38;;;6.60;97.40;;;;;;5053993;28;20445;-72
2021/12/02 06:27:43;;;;;;;8.38;1.42;;;6.60;98.40;;;;;;5068167;28;20880;-71
2021/12/02 06:30:09;;;;;;;9.93;1.45;;;6.70;99.00;;;;;;5066505;28;20903;-73
2021/12/02 06:32:35;;;;;;;7.20;1.30;;;6.70;98.80;;;;;;5065070;28;20419;-71
2021/12/02 06:35:01;;;;;;;7.53;1.30;;;6.80;98.80;;;;;;5045974;28;20478;-71
2021/12/02 06:37:26;;;;;;;7.82;1.90;;;6.80;98.70;;;;;;5067312;28;20880;-70
2021/12/02 06:39:52;;;;;;;5.50;1.10;;;6.70;98.20;;;;;;5062021;28;20433;-71
2021/12/02 06:42:18;;;;;;;5.63;1.02;;;6.70;97.60;;;;;;5066525;28;20919;-73
2021/12/02 06:44:44;;;;;;;9.93;1.20;;;6.70;97.30;;;;;;5071295;28;20425;-72
2021/12/02 06:47:10;;;;;;;11.93;1.40;;;6.70;97.20;;;;;;5074391;28;21046;-73
2021/12/02 06:49:38;;;;;;;10.88;1.50;;;6.70;97.00;;;;;;5065242;28;20499;-71
2021/12/02 06:52:09;;;;;;;7.82;1.20;;;6.70;97.40;;;;;;5067180;28;20399;-71
2021/12/02 06:54:34;;;;;;;8.05;1.52;;;6.70;97.00;;;;;;5066520;28;20868;-72
2021/12/02 06:57:00;;;;;;;9.15;1.88;;;6.60;97.20;;;;;;5066887;28;20411;-73
2021/12/02 06:59:29;;;;;;;9.77;1.70;;;6.60;97.70;;;;;;5065068;28;20412;-71
2021/12/02 07:01:55;;;;;;;6.47;1.30;;;6.70;98.50;;;;;;5070856;28;20435;-74
2021/12/02 07:04:21;;;;;;;7.93;1.42;;;6.60;98.80;;;;;;5080182;28;20469;-73
2021/12/02 07:06:47;;;;;;;8.75;1.48;;;6.60;99.20;;;;;;5074530;28;20831;-74
2021/12/02 07:09:12;;;;;;;12.05;1.70;;;6.60;99.50;;;;;;5071597;28;20465;-71
2021/12/02 07:11:38;;;;;;;11.93;2.00;;;6.60;99.80;;;;;;5065733;28;20411;-72
2021/12/02 07:14:12;;;;;;;12.38;1.75;;;6.50;99.90;;;;;;5066007;28;20442;-72
2021/12/02 07:16:38;;;;;;;11.52;1.90;;;6.50;99.90;;;;;;5070195;28;20959;-76
2021/12/02 07:19:06;;;;;;;11.03;1.73;;;6.40;99.90;;;;;;5067799;28;20510;-73
2021/12/02 07:21:34;;;;;;;11.00;1.90;;;6.50;99.90;;;;;;5069402;28;20495;-71
2021/12/02 07:23:59;;;;;;;14.75;2.05;;;6.50;99.90;;;;;;5072478;28;20451;-70
2021/12/02 07:26:25;;;;;;;18.17;6.43;;;6.50;99.90;;;;;;5068443;28;20415;-71
2021/12/02 07:28:51;;;;;;;11.40;2.80;;;6.50;99.90;;;;;;5066829;28;20399;-72
2021/12/02 07:31:18;;;;;;;12.68;2.40;;;6.60;99.90;;;;;;5071653;28;20415;-72
2021/12/02 07:33:48;;;;;;;13.23;2.47;;;6.60;99.90;;;;;;5075650;28;20415;-73
2021/12/02 07:36:15;;;;;;;12.55;2.08;;;6.60;99.90;;;;;;5068677;28;20414;-71
2021/12/02 07:38:41;;;;;;;11.38;2.00;;;6.60;99.90;;;;;;5074484;28;20441;-73
2021/12/02 07:41:07;;;;;;;10.48;1.80;;;6.60;99.90;;;;;;5070627;28;20410;-72
2021/12/02 07:43:35;;;;;;;15.52;2.03;;;6.60;99.90;;;;;;5069815;28;20407;-72
2021/12/02 07:46:02;;;;;;;15.57;2.22;;;6.60;99.90;;;;;;5065949;28;20438;-74
2021/12/02 07:48:28;;;;;;;11.23;2.93;;;6.60;99.90;;;;;;5076155;28;20407;-71
2021/12/02 07:51:01;;;;;;;20.77;5.00;;;6.60;99.90;;;;;;5068032;28;20449;-75
2021/12/02 07:53:28;;;;;;;9.15;1.80;;;6.50;99.90;;;;;;5046914;28;20412;-72
2021/12/02 07:55:56;;;;;;;8.90;2.00;;;6.50;99.90;;;;;;5067168;28;20456;-71
2021/12/02 07:58:24;;;;;;;8.57;1.60;;;6.50;99.90;;;;;;5069922;28;20407;-71
2021/12/02 08:00:50;;;;;;;13.63;2.60;;;6.50;99.90;;;;;;5071411;28;20426;-72
2021/12/02 08:03:17;;;;;;;11.80;2.90;;;6.40;99.90;;;;;;5072005;28;20400;-69
2021/12/02 08:05:42;;;;;;;10.57;2.20;;;6.40;99.90;;;;;;5064825;28;20415;-70
2021/12/02 08:08:09;;;;;;;7.43;1.77;;;6.40;99.90;;;;;;5076169;28;20773;-71
2021/12/02 08:10:36;;;;;;;8.13;1.70;;;6.40;99.90;;;;;;5065137;28;20415;-71
2021/12/02 08:13:03;;;;;;;10.55;1.77;;;6.40;99.90;;;;;;5073416;28;20427;-72
2021/12/02 08:15:30;;;;;;;6.77;1.63;;;6.40;99.90;;;;;;5065546;28;20835;-70
2021/12/02 08:17:58;;;;;;;9.45;1.98;;;6.40;99.90;;;;;;5065581;28;20729;-71
2021/12/02 08:20:25;;;;;;;7.30;1.70;;;6.40;99.90;;;;;;5065723;28;20413;-69
2021/12/02 08:22:51;;;;;;;9.27;2.10;;;6.50;99.90;;;;;;5070362;28;20406;-70
2021/12/02 08:25:21;;;;;;;12.15;1.88;;;6.50;99.90;;;;;;5063452;28;20423;-71
2021/12/02 08:27:47;;;;;;;8.57;1.90;;;6.50;99.90;;;;;;5065580;28;20402;-70
2021/12/02 08:30:15;;;;;;;12.18;1.92;;;6.50;99.90;;;;;;5066597;28;20403;-70
2021/12/02 08:32:41;;;;;;;9.50;2.13;;;6.60;99.90;;;;;;5064981;28;20403;-69
2021/12/02 08:35:08;;;;;;;10.23;2.35;;;6.60;99.90;;;;;;5064382;28;20437;-70
2021/12/02 08:37:37;;;;;;;15.30;2.47;;;6.60;99.90;;;;;;5065410;28;20498;-71
2021/12/02 08:40:04;;;;;;;15.25;3.00;;;6.60;99.90;;;;;;5062599;28;20510;-72
2021/12/02 08:42:32;;;;;;;14.95;2.70;;;6.60;99.90;;;;;;5064311;28;20410;-71
2021/12/02 08:44:59;;;;;;;11.50;2.30;;;6.60;99.90;;;;;;5064838;28;20415;-72
2021/12/02 08:47:27;;;;;;;7.68;1.90;;;6.60;99.90;;;;;;5062050;28;20457;-72
2021/12/02 08:49:54;;;;;;;10.40;1.50;;;6.60;99.90;;;;;;5046552;28;20415;-71
2021/12/02 08:52:27;;;;;;;9.35;1.45;;;6.70;99.90;;;;;;5062518;28;20768;-70
2021/12/02 08:54:54;;;;;;;10.33;1.80;;;6.70;99.90;;;;;;5061357;28;20407;-71
2021/12/02 08:57:22;;;;;;;6.43;1.80;;;6.70;99.90;;;;;;5064385;28;20406;-72
2021/12/02 08:59:49;;;;;;;8.60;1.67;;;6.60;99.90;;;;;;5044567;28;20499;-72
2021/12/02 09:02:15;;;;;;;9.30;1.80;;;6.70;99.90;;;;;;5063011;28;20421;-72
2021/12/02 09:04:41;;;;;;;9.95;2.00;;;6.70;99.90;;;;;;5062782;28;20410;-70
2021/12/02 09:07:07;;;;;;;14.10;1.97;;;6.70;99.90;;;;;;5063682;28;20892;-73
2021/12/02 09:09:33;;;;;;;11.38;1.92;;;6.70;99.90;;;;;;5060187;28;20425;-73
2021/12/02 09:11:59;;;;;;;10.02;1.80;;;6.80;99.90;;;;;;5055359;28;20810;-71
2021/12/02 09:14:25;;;;;;;8.70;1.77;;;7.00;99.90;;;;;;5060813;28;20440;-72
2021/12/02 09:16:51;;;;;;;10.65;1.75;;;7.50;99.90;;;;;;5053249;28;20942;-73
2021/12/02 09:19:20;;;;;;;8.30;1.77;;;8.00;99.90;;;;;;5061451;28;20419;-71
2021/12/02 09:21:46;;;;;;;11.57;1.85;;;8.30;99.90;;;;;;5053833;28;20453;-72
2021/12/02 09:24:12;;;;;;;7.03;1.50;;;8.70;99.90;;;;;;5041795;28;20412;-73
2021/12/02 09:26:39;;;;;;;5.80;1.40;;;8.80;98.80;;;;;;5057394;28;20974;-74
2021/12/02 09:29:05;;;;;;;8.25;1.20;;;8.60;98.60;;;;;;5057967;28;20415;-71
2021/12/02 09:31:31;;;;;;;7.57;1.20;;;8.40;98.80;;;;;;5058800;28;20519;-73
2021/12/02 09:33:57;;;;;;;6.00;0.80;;;8.10;99.00;;;;;;5044354;28;20418;-71
2021/12/02 09:36:23;;;;;;;3.40;0.70;;;7.90;99.30;;;;;;5059126;28;20423;-73
2021/12/02 09:38:49;;;;;;;2.15;0.80;;;7.70;99.80;;;;;;5057840;28;20257;-71
2021/12/02 09:41:15;;;;;;;2.67;0.90;;;7.10;99.90;;;;;;5042195;28;20541;-71
2021/12/02 09:43:41;;;;;;;2.95;1.20;;;7.10;99.90;;;;;;5054501;28;20492;-72
2021/12/02 09:46:08;;;;;;;8.35;1.60;;;7.10;99.90;;;;;;5060987;28;20570;-71
2021/12/02 09:48:34;;;;;;;6.78;1.35;;;7.20;99.90;;;;;;5051488;28;20417;-72
2021/12/02 09:51:12;;;;;;;9.35;1.90;;;7.10;99.90;;;;;;5061151;28;20776;-71
2021/12/02 09:53:52;;;;;;;6.60;1.58;;;7.10;99.90;;;;;;5053137;28;20456;-73
2021/12/02 09:56:26;;;;;;;7.88;1.65;;;7.20;99.90;;;;;;5056113;28;20412;-69
2021/12/02 09:58:54;;;;;;;7.90;1.80;;;7.10;99.90;;;;;;5054869;28;20519;-73
2021/12/02 10:01:24;;;;;;;7.40;1.10;;;7.10;99.90;;;;;;5059737;28;20899;-70
2021/12/02 10:03:58;;;;;;;5.97;1.40;;;7.10;99.90;;;;;;5066103;28;21209;-71
2021/12/02 10:06:29;;;;;;;8.85;1.23;;;7.10;99.90;;;;;;5062050;28;20408;-72
2021/12/02 10:09:04;;;;;;;7.10;1.55;;;7.10;99.90;;;;;;5065420;28;20582;-72
2021/12/02 10:11:44;;;;;;;3.63;1.00;;;7.00;99.90;;;;;;5060666;28;20447;-74
2021/12/02 10:14:36;;;;;;;5.07;1.00;;;6.90;99.90;;;;;;5060611;28;20530;-72
2021/12/02 10:17:14;;;;;;;5.77;1.00;;;6.90;99.90;;;;;;5056592;28;20422;-71
2021/12/02 10:23:43;;;;;;;5.33;1.20;;;6.80;99.90;;;;;;5057264;28;21166;-71
2021/12/02 10:26:04;;;;;;;3.55;1.30;;;6.80;99.90;;;;;;5052936;28;20406;-74
2021/12/02 10:28:42;;;;;;;5.70;1.20;;;6.80;99.90;;;;;;5046597;28;20415;-71
2021/12/02 10:31:10;;;;;;;6.13;1.33;;;6.90;99.90;;;;;;5060733;28;20411;-73
2021/12/02 10:33:42;;;;;;;10.80;4.03;;;6.90;99.90;;;;;;5055839;28;20515;-70
2021/12/02 10:36:28;;;;;;;13.45;5.45;;;6.90;99.90;;;;;;5064901;28;20411;-74
2021/12/02 10:39:19;;;;;;;10.48;1.63;;;6.80;99.90;;;;;;5068944;28;20418;-71
2021/12/02 10:41:47;;;;;;;5.43;1.20;;;6.80;99.90;;;;;;5058572;28;20502;-73
2021/12/02 10:44:24;;;;;;;5.43;1.40;;;6.80;99.90;;;;;;5067376;28;20477;-70
2021/12/02 10:47:00;;;;;;;6.10;1.80;;;6.80;99.90;;;;;;5067583;28;20896;-72
2021/12/02 10:49:32;;;;;;;9.27;1.58;;;6.80;99.90;;;;;;5066264;28;20427;-73
2021/12/02 10:52:01;;;;;;;8.25;2.08;;;6.80;99.90;;;;;;5065140;28;20415;-74
2021/12/02 10:54:31;;;;;;;6.18;1.63;;;6.80;99.90;;;;;;5065842;28;20426;-73
2021/12/02 10:57:09;;;;;;;8.75;2.30;;;6.90;99.90;;;;;;5066108;28;20422;-71
2021/12/02 10:59:44;;;;;;;6.90;2.03;;;6.90;99.90;;;;;;5067497;28;20419;-73
2021/12/02 11:02:18;;;;;;;6.45;2.20;;;6.90;99.90;;;;;;5065940;28;20420;-73
2021/12/02 11:04:51;;;;;;;5.15;2.08;;;7.00;99.90;;;;;;5065027;28;20412;-72
2021/12/02 11:07:40;;;;;;;13.00;2.57;;;7.00;99.90;;;;;;5066558;28;20446;-71
2021/12/02 11:10:08;;;;;;;9.75;2.70;;;7.10;99.90;;;;;;5064650;28;20419;-71
2021/12/02 11:12:45;;;;;;;9.75;2.72;;;7.00;99.90;;;;;;5065159;28;20484;-73
2021/12/02 11:15:18;;;;;;;9.20;2.07;;;7.10;99.90;;;;;;5066907;28;20407;-70
2021/12/02 11:17:44;;;;;;;6.57;2.00;;;7.20;99.90;;;;;;5066375;28;20446;-72
2021/12/02 11:20:16;;;;;;;7.68;2.40;;;7.20;99.90;;;;;;5066965;28;20455;-71
2021/12/02 11:22:42;;;;;;;9.98;3.95;;;7.20;99.90;;;;;;5064060;28;20892;-72
2021/12/02 11:25:10;;;;;;;11.63;4.05;;;7.20;99.90;;;;;;5069067;28;20506;-72
2021/12/02 11:27:41;;;;;;;7.60;2.50;;;7.20;99.90;;;;;;5066345;28;21021;-71
2021/12/02 11:30:16;;;;;;;7.03;2.33;;;7.20;99.90;;;;;;5067975;28;20422;-71
2021/12/02 11:32:52;;;;;;;6.32;2.10;;;7.40;99.90;;;;;;5066119;28;20419;-73
2021/12/02 11:35:23;;;;;;;5.90;1.67;;;8.20;99.90;;;;;;5072570;28;20430;-69
2021/12/02 11:38:03;;;;;;;3.63;1.60;;;9.20;99.90;;;;;;5066355;28;20418;-71
2021/12/02 11:40:32;;;;;;;5.30;1.98;;;10.30;99.80;;;;;;5066951;28;20780;-71
2021/12/02 11:42:58;;;;;;;5.95;1.90;;;11.10;96.70;;;;;;5066142;28;20426;-71
2021/12/02 11:45:26;;;;;;;4.70;1.80;;;11.40;95.30;;;;;;5063898;28;21894;-71
2021/12/02 11:47:53;;;;;;;7.13;1.90;;;11.30;94.30;;;;;;5070085;28;20435;-72
2021/12/02 11:50:21;;;;;;;5.18;1.50;;;11.20;94.40;;;;;;5074686;28;20443;-71
2021/12/02 11:52:47;;;;;;;4.25;1.70;;;11.10;94.70;;;;;;5075428;28;21036;-71
2021/12/02 11:55:15;;;;;;;3.97;1.35;;;11.30;95.20;;;;;;5064743;28;20415;-71
2021/12/02 11:57:42;;;;;;;5.93;2.10;;;11.60;94.30;;;;;;5062048;28;20411;-70
2021/12/02 12:00:13;;;;;;;7.18;3.35;;;12.10;93.60;;;;;;5065302;28;20748;-71
2021/12/02 12:02:54;;;;;;;5.60;1.50;;;12.70;92.60;;;;;;5064950;28;20407;-71
2021/12/02 12:05:25;;;;;;;5.50;1.58;;;13.20;91.20;;;;;;5067013;28;20415;-70
2021/12/02 12:07:51;;;;;;;7.50;1.70;;;13.60;89.30;;;;;;5065284;28;21592;-70
2021/12/02 12:10:32;;;;;;;7.18;1.98;;;13.70;87.40;;;;;;5074370;28;20497;-70
2021/12/02 12:13:16;;;;;;;8.05;2.85;;;13.40;86.60;;;;;;5068442;28;20513;-69
2021/12/02 12:15:45;;;;;;;9.82;3.00;;;13.00;87.60;;;;;;5065756;28;20415;-71
2021/12/02 12:18:19;;;;;;;10.27;3.00;;;12.70;90.20;;;;;;5065081;28;20454;-71
2021/12/02 12:20:57;;;;;;;12.27;3.17;;;12.40;90.70;;;;;;5063871;28;20419;-71
2021/12/02 12:23:34;;;;;;;12.20;3.10;;;12.30;91.50;;;;;;5063424;28;22617;-71
2021/12/02 12:26:18;;;;;;;8.73;2.97;;;12.50;91.70;;;;;;5065917;28;20461;-70
2021/12/02 12:29:06;;;;;;;12.32;2.65;;;12.80;91.60;;;;;;5064488;28;20415;-70
2021/12/02 12:31:52;;;;;;;13.63;3.10;;;13.20;90.60;;;;;;5064311;28;20526;-70
2021/12/02 12:34:30;;;;;;;10.13;2.80;;;13.70;90.20;;;;;;5064318;28;20428;-70
2021/12/02 12:37:22;;;;;;;11.27;3.10;;;14.00;87.80;;;;;;5065259;28;20426;-70
2021/12/02 12:40:13;;;;;;;15.13;3.05;;;13.90;85.30;;;;;;5069820;28;20509;-70
2021/12/02 12:42:43;;;;;;;12.13;2.40;;;13.50;86.40;;;;;;5043611;28;20411;-69
2021/12/02 12:45:11;;;;;;;11.90;2.20;;;13.10;87.00;;;;;;5056493;28;20970;-69
2021/12/02 12:47:40;;;;;;;10.98;1.90;;;12.70;87.70;;;;;;5058667;28;20411;-69
2021/12/02 12:50:24;;;;;;;;;;;12.30;85.60;;;;;;5063521;28;20032;-69
2021/12/02 12:53:16;;;;;;;8.23;1.60;;;11.40;87.40;;;;;;5060675;28;20597;-70
2021/12/02 12:56:09;;;;;;;6.53;0.90;;;11.10;89.30;;;;;;5007706;28;21073;-69
2021/12/02 12:58:58;;;;;;;3.25;0.90;;;10.80;86.80;;;;;;5057699;28;20819;-70
2021/12/02 13:01:26;;;;;;;1.17;0.68;;;10.60;87.20;;;;;;5058549;28;20930;-69
2021/12/02 13:04:09;;;;;;;2.90;0.60;;;10.30;86.80;;;;;;5041227;28;20407;-71
2021/12/02 13:07:07;;;;;;;2.85;0.70;;;10.10;86.50;;;;;;5053070;28;20417;-71
2021/12/02 13:12:20;;;;;;;3.13;0.90;;;9.80;88.20;;;;;;5059417;28;20427;-71
2021/12/02 13:14:47;;;;;;;;;;;9.70;89.20;;;;;;5058199;28;20037;-69
2021/12/02 13:17:31;;;;;;;;;;;9.10;89.80;;;;;;5059063;28;19954;-69
2021/12/02 13:19:58;;;;;;;;;;;8.60;90.40;;;;;;5041511;28;19985;-71
2021/12/02 13:22:23;;;;;;;;;;;8.20;91.00;;;;;;5053910;28;19920;-71
2021/12/02 13:24:49;;;;;;;;;;;8.00;91.40;;;;;;5060765;28;19912;-69